createdAt,value
2018-09-14T00:00:33.374Z,0.00
2018-09-14T00:01:34.817Z,0.00
2018-09-14T00:02:30.632Z,0.00
2018-09-14T00:03:30.804Z,0.00
2018-09-14T00:04:30.982Z,0.00
2018-09-14T00:05:34.421Z,0.00
2018-09-14T00:06:31.322Z,0.00
2018-09-14T00:07:31.496Z,0.00
2018-09-14T00:08:31.677Z,0.00
2018-09-14T00:09:31.866Z,0.00
2018-09-14T00:10:32.031Z,0.00
2018-09-14T00:11:32.216Z,0.00
2018-09-14T00:12:32.404Z,0.00
2018-09-14T00:13:32.570Z,0.00
2018-09-14T00:14:32.743Z,0.00
2018-09-14T00:15:32.916Z,0.00
2018-09-14T00:16:33.094Z,0.00
2018-09-14T00:17:33.273Z,0.00
2018-09-14T00:18:33.456Z,0.00
2018-09-14T00:19:33.625Z,0.00
2018-09-14T00:20:33.802Z,0.00
2018-09-14T00:21:33.976Z,0.00
2018-09-14T00:22:34.153Z,0.00
2018-09-14T00:23:34.326Z,0.00
2018-09-14T00:24:34.505Z,0.00
2018-09-14T00:25:34.688Z,0.00
2018-09-14T00:26:34.861Z,0.00
2018-09-14T00:27:35.049Z,0.00
2018-09-14T00:28:35.223Z,0.00
2018-09-14T00:29:35.401Z,0.00
2018-09-14T00:30:35.575Z,0.00
2018-09-14T00:31:35.743Z,0.00
2018-09-14T00:32:35.923Z,0.00
2018-09-14T00:33:36.101Z,0.00
2018-09-14T00:34:36.276Z,0.00
2018-09-14T00:35:36.454Z,0.00
2018-09-14T00:36:36.643Z,0.00
2018-09-14T00:37:36.817Z,0.00
2018-09-14T00:38:36.986Z,0.00
2018-09-14T00:39:37.165Z,0.00
2018-09-14T00:40:37.336Z,0.00
2018-09-14T00:41:37.510Z,0.00
2018-09-14T00:42:37.682Z,0.00
2018-09-14T00:43:37.856Z,0.00
2018-09-14T00:44:38.034Z,0.00
2018-09-14T00:45:38.210Z,0.00
2018-09-14T00:46:38.402Z,0.00
2018-09-14T00:47:38.567Z,0.00
2018-09-14T00:48:38.740Z,0.00
2018-09-14T00:49:38.912Z,0.00
2018-09-14T00:50:39.082Z,0.00
2018-09-14T00:51:39.268Z,0.00
2018-09-14T00:52:39.441Z,0.00
2018-09-14T00:53:39.622Z,0.00
2018-09-14T00:54:39.813Z,0.00
2018-09-14T00:55:40.003Z,0.00
2018-09-14T00:56:40.191Z,0.00
2018-09-14T00:57:40.382Z,0.00
2018-09-14T00:58:40.558Z,0.00
2018-09-14T00:59:40.739Z,0.00
2018-09-14T01:00:40.913Z,0.00
2018-09-14T01:01:41.091Z,0.00
2018-09-14T01:02:41.265Z,0.00
2018-09-14T01:03:41.448Z,0.00
2018-09-14T01:04:41.611Z,0.00
2018-09-14T01:05:41.786Z,0.00
2018-09-14T01:06:41.955Z,0.00
2018-09-14T01:07:42.139Z,0.00
2018-09-14T01:08:42.317Z,0.00
2018-09-14T01:09:42.497Z,0.00
2018-09-14T01:10:42.672Z,0.00
2018-09-14T01:11:42.846Z,0.00
2018-09-14T01:12:43.029Z,0.00
2018-09-14T01:13:43.238Z,0.00
2018-09-14T01:14:43.395Z,0.00
2018-09-14T01:15:43.580Z,0.00
2018-09-14T01:16:43.759Z,0.00
2018-09-14T01:17:43.937Z,0.00
2018-09-14T01:18:44.114Z,0.00
2018-09-14T01:19:44.337Z,0.00
2018-09-14T01:20:44.522Z,0.00
2018-09-14T01:21:44.699Z,0.00
2018-09-14T01:22:44.871Z,0.00
2018-09-14T01:23:45.053Z,0.00
2018-09-14T01:24:45.230Z,0.00
2018-09-14T01:25:45.404Z,0.00
2018-09-14T01:26:45.581Z,0.00
2018-09-14T01:27:45.769Z,0.00
2018-09-14T01:28:45.947Z,0.00
2018-09-14T01:29:46.121Z,0.00
2018-09-14T01:30:46.291Z,0.00
2018-09-14T01:31:46.461Z,0.00
2018-09-14T01:32:46.628Z,0.00
2018-09-14T01:33:46.822Z,0.00
2018-09-14T01:34:47.022Z,0.00
2018-09-14T01:35:47.212Z,0.00
2018-09-14T01:36:47.384Z,0.00
2018-09-14T01:37:47.593Z,0.00
2018-09-14T01:38:47.749Z,0.00
2018-09-14T01:39:47.947Z,0.00
2018-09-14T01:40:48.126Z,0.00
2018-09-14T01:41:48.309Z,0.00
2018-09-14T01:42:48.500Z,0.00
2018-09-14T01:43:48.704Z,0.00
2018-09-14T01:44:48.897Z,0.00
2018-09-14T01:45:49.079Z,0.00
2018-09-14T01:46:49.269Z,0.00
2018-09-14T01:47:49.442Z,0.00
2018-09-14T01:48:49.627Z,0.00
2018-09-14T01:49:49.805Z,0.00
2018-09-14T01:50:49.982Z,0.00
2018-09-14T01:51:50.159Z,0.00
2018-09-14T01:52:50.356Z,0.00
2018-09-14T01:53:50.539Z,0.00
2018-09-14T01:54:50.706Z,0.00
2018-09-14T01:55:50.895Z,0.00
2018-09-14T01:56:51.090Z,0.00
2018-09-14T01:57:51.264Z,0.00
2018-09-14T01:58:51.431Z,0.00
2018-09-14T01:59:51.610Z,0.00
2018-09-14T02:00:51.786Z,0.00
2018-09-14T02:01:51.963Z,0.00
2018-09-14T02:02:52.140Z,0.00
2018-09-14T02:03:52.326Z,0.00
2018-09-14T02:04:52.500Z,0.00
2018-09-14T02:05:52.685Z,0.00
2018-09-14T02:06:52.861Z,0.00
2018-09-14T02:07:53.032Z,0.00
2018-09-14T02:08:53.203Z,0.00
2018-09-14T02:09:53.384Z,0.00
2018-09-14T02:10:53.595Z,0.00
2018-09-14T02:11:53.667Z,0.00
2018-09-14T02:12:53.846Z,0.00
2018-09-14T02:13:54.037Z,0.00
2018-09-14T02:14:54.225Z,0.00
2018-09-14T02:15:54.388Z,0.00
2018-09-14T02:16:54.560Z,0.00
2018-09-14T02:17:54.740Z,0.00
2018-09-14T02:18:54.909Z,0.00
2018-09-14T02:19:55.102Z,0.00
2018-09-14T02:20:55.278Z,0.00
2018-09-14T02:21:55.445Z,0.00
2018-09-14T02:22:55.627Z,0.00
2018-09-14T02:23:55.796Z,0.00
2018-09-14T02:24:55.981Z,0.00
2018-09-14T02:25:56.150Z,0.00
2018-09-14T02:26:56.321Z,0.00
2018-09-14T02:27:56.503Z,0.00
2018-09-14T02:28:56.676Z,0.00
2018-09-14T02:29:56.867Z,0.00
2018-09-14T02:30:57.125Z,0.00
2018-09-14T02:31:57.188Z,0.00
2018-09-14T02:32:57.359Z,0.00
2018-09-14T02:33:57.532Z,0.00
2018-09-14T02:34:57.710Z,0.00
2018-09-14T02:35:57.894Z,0.00
2018-09-14T02:36:58.071Z,0.00
2018-09-14T02:37:58.240Z,0.00
2018-09-14T02:38:58.414Z,0.00
2018-09-14T02:39:58.590Z,0.00
2018-09-14T02:40:58.772Z,0.00
2018-09-14T02:41:58.947Z,0.00
2018-09-14T02:42:59.123Z,0.00
2018-09-14T02:43:59.312Z,0.00
2018-09-14T02:44:59.485Z,0.00
2018-09-14T02:45:59.666Z,0.00
2018-09-14T02:46:59.847Z,0.00
2018-09-14T02:48:00.025Z,0.00
2018-09-14T02:49:00.196Z,0.00
2018-09-14T02:50:00.377Z,0.00
2018-09-14T02:51:00.546Z,0.00
2018-09-14T02:52:00.724Z,0.00
2018-09-14T02:53:00.912Z,0.00
2018-09-14T02:54:01.087Z,0.00
2018-09-14T02:55:01.261Z,0.00
2018-09-14T02:56:01.442Z,0.00
2018-09-14T02:57:01.619Z,0.00
2018-09-14T02:58:01.815Z,0.00
2018-09-14T02:59:01.980Z,0.00
2018-09-14T03:00:02.156Z,0.00
2018-09-14T03:01:02.331Z,0.00
2018-09-14T03:02:02.504Z,0.00
2018-09-14T03:03:02.680Z,0.00
2018-09-14T03:04:02.854Z,0.00
2018-09-14T03:05:03.043Z,0.00
2018-09-14T03:06:03.223Z,0.00
2018-09-14T03:07:03.391Z,0.00
2018-09-14T03:08:03.579Z,0.00
2018-09-14T03:09:03.751Z,0.00
2018-09-14T03:10:03.920Z,0.00
2018-09-14T03:11:04.090Z,0.00
2018-09-14T03:12:04.267Z,0.00
2018-09-14T03:13:04.442Z,0.00
2018-09-14T03:14:04.620Z,0.00
2018-09-14T03:15:04.796Z,0.00
2018-09-14T03:16:04.975Z,0.00
2018-09-14T03:17:05.156Z,0.00
2018-09-14T03:18:05.322Z,0.00
2018-09-14T03:19:05.502Z,0.00
2018-09-14T03:20:05.672Z,0.00
2018-09-14T03:21:05.846Z,0.00
2018-09-14T03:22:06.023Z,0.00
2018-09-14T03:23:06.194Z,0.00
2018-09-14T03:24:06.379Z,0.00
2018-09-14T03:25:06.549Z,0.00
2018-09-14T03:26:06.723Z,0.00
2018-09-14T03:27:06.897Z,0.00
2018-09-14T03:28:07.070Z,0.00
2018-09-14T03:29:07.256Z,0.00
2018-09-14T03:30:07.433Z,0.00
2018-09-14T03:31:07.610Z,0.00
2018-09-14T03:32:07.779Z,0.00
2018-09-14T03:33:07.958Z,0.00
2018-09-14T03:34:08.136Z,0.00
2018-09-14T03:35:08.307Z,0.00
2018-09-14T03:36:08.482Z,0.00
2018-09-14T03:37:08.647Z,0.00
2018-09-14T03:38:08.826Z,0.00
2018-09-14T03:39:09.073Z,0.00
2018-09-14T03:40:09.168Z,0.00
2018-09-14T03:41:09.346Z,0.00
2018-09-14T03:42:09.521Z,0.00
2018-09-14T03:43:09.702Z,0.00
2018-09-14T03:44:09.875Z,0.00
2018-09-14T03:45:10.056Z,0.00
2018-09-14T03:46:10.220Z,0.00
2018-09-14T03:47:10.397Z,0.00
2018-09-14T03:48:10.568Z,0.00
2018-09-14T03:49:10.738Z,0.00
2018-09-14T03:50:10.916Z,0.00
2018-09-14T03:51:11.089Z,0.00
2018-09-14T03:52:11.267Z,0.00
2018-09-14T03:53:11.444Z,0.00
2018-09-14T03:54:11.618Z,0.00
2018-09-14T03:55:11.793Z,0.00
2018-09-14T03:56:11.974Z,0.00
2018-09-14T03:57:12.209Z,0.00
2018-09-14T03:58:12.332Z,0.00
2018-09-14T03:59:12.511Z,0.00
2018-09-14T04:00:12.693Z,0.00
2018-09-14T04:01:12.860Z,0.00
2018-09-14T04:02:13.031Z,0.00
2018-09-14T04:03:13.204Z,0.00
2018-09-14T04:04:13.381Z,0.00
2018-09-14T04:05:13.554Z,0.00
2018-09-14T04:06:13.735Z,0.00
2018-09-14T04:07:14.716Z,0.00
2018-09-14T04:08:14.090Z,0.00
2018-09-14T04:09:14.271Z,0.00
2018-09-14T04:10:14.448Z,0.00
2018-09-14T04:11:14.632Z,0.00
2018-09-14T04:12:14.819Z,0.00
2018-09-14T04:13:14.987Z,0.00
2018-09-14T04:14:15.161Z,0.00
2018-09-14T04:15:15.343Z,0.00
2018-09-14T04:16:15.520Z,0.00
2018-09-14T04:17:15.697Z,0.00
2018-09-14T04:18:15.874Z,0.00
2018-09-14T04:19:16.064Z,0.00
2018-09-14T04:20:16.233Z,0.00
2018-09-14T04:21:16.412Z,0.00
2018-09-14T04:22:16.585Z,0.00
2018-09-14T04:23:16.761Z,0.00
2018-09-14T04:24:16.942Z,0.00
2018-09-14T04:25:17.110Z,0.00
2018-09-14T04:26:17.542Z,0.00
2018-09-14T04:27:20.201Z,0.00
2018-09-14T04:28:17.670Z,0.00
2018-09-14T04:29:17.846Z,0.00
2018-09-14T04:30:18.027Z,0.00
2018-09-14T04:31:18.205Z,0.00
2018-09-14T04:32:18.373Z,0.00
2018-09-14T04:33:18.556Z,0.00
2018-09-14T04:34:18.733Z,0.00
2018-09-14T04:35:18.911Z,0.00
2018-09-14T04:36:19.088Z,0.00
2018-09-14T04:37:19.253Z,0.00
2018-09-14T04:38:24.585Z,0.00
2018-09-14T04:39:19.584Z,0.00
2018-09-14T04:40:24.284Z,0.00
2018-09-14T04:41:19.968Z,0.00
2018-09-14T04:42:20.143Z,0.00
2018-09-14T04:43:20.326Z,0.00
2018-09-14T04:44:20.543Z,0.00
2018-09-14T04:45:20.709Z,0.00
2018-09-14T04:46:20.882Z,0.00
2018-09-14T04:47:21.055Z,0.00
2018-09-14T04:48:21.271Z,0.00
2018-09-14T04:49:21.395Z,0.00
2018-09-14T04:50:21.575Z,0.00
2018-09-14T04:51:21.765Z,0.00
2018-09-14T04:52:23.768Z,0.00
2018-09-14T04:53:22.131Z,0.00
2018-09-14T04:54:22.309Z,0.00
2018-09-14T04:55:22.483Z,0.00
2018-09-14T04:56:22.675Z,0.00
2018-09-14T04:57:22.982Z,0.00
2018-09-14T04:58:23.036Z,0.00
2018-09-14T04:59:23.217Z,0.00
2018-09-14T05:00:25.533Z,0.00
2018-09-14T05:01:25.557Z,0.00
2018-09-14T05:02:24.647Z,0.00
2018-09-14T05:03:24.018Z,0.00
2018-09-14T05:04:24.092Z,0.00
2018-09-14T05:05:24.266Z,0.00
2018-09-14T05:06:24.464Z,0.00
2018-09-14T05:07:24.643Z,0.00
2018-09-14T05:08:24.818Z,0.00
2018-09-14T05:09:24.989Z,0.00
2018-09-14T05:10:25.166Z,0.00
2018-09-14T05:11:25.346Z,0.00
2018-09-14T05:12:25.514Z,0.00
2018-09-14T05:13:25.777Z,0.00
2018-09-14T05:14:25.818Z,0.00
2018-09-14T05:15:26.030Z,0.00
2018-09-14T05:16:26.318Z,0.00
2018-09-14T05:17:26.333Z,0.00
2018-09-14T05:18:26.413Z,0.00
2018-09-14T05:19:26.645Z,0.00
2018-09-14T05:20:26.697Z,0.00
2018-09-14T05:21:26.875Z,0.00
2018-09-14T05:22:27.055Z,0.00
2018-09-14T05:23:27.236Z,0.00
2018-09-14T05:24:27.440Z,0.00
2018-09-14T05:25:27.584Z,5.63
2018-09-14T05:26:27.769Z,5.63
2018-09-14T05:27:27.936Z,5.63
2018-09-14T05:28:28.115Z,5.63
2018-09-14T05:29:28.286Z,5.63
2018-09-14T05:30:28.460Z,5.63
2018-09-14T05:31:28.633Z,5.63
2018-09-14T05:32:28.804Z,5.63
2018-09-14T05:33:28.982Z,5.63
2018-09-14T05:34:29.154Z,5.63
2018-09-14T05:35:29.334Z,5.63
2018-09-14T05:36:29.505Z,5.63
2018-09-14T05:37:29.679Z,5.63
2018-09-14T05:38:29.878Z,5.63
2018-09-14T05:39:32.839Z,5.63
2018-09-14T05:40:30.176Z,5.63
2018-09-14T05:41:30.361Z,5.63
2018-09-14T05:42:30.563Z,5.63
2018-09-14T05:43:30.726Z,5.63
2018-09-14T05:44:30.901Z,5.63
2018-09-14T05:45:31.082Z,5.63
2018-09-14T05:46:31.268Z,5.63
2018-09-14T05:47:31.440Z,5.63
2018-09-14T05:48:31.621Z,5.63
2018-09-14T05:49:31.803Z,11.25
2018-09-14T05:50:31.970Z,11.25
2018-09-14T05:51:32.157Z,11.25
2018-09-14T05:52:32.325Z,11.25
2018-09-14T05:53:32.500Z,11.25
2018-09-14T05:54:32.678Z,11.25
2018-09-14T05:55:32.866Z,11.25
2018-09-14T05:56:33.049Z,11.25
2018-09-14T05:57:33.228Z,11.25
2018-09-14T05:58:33.486Z,11.25
2018-09-14T05:59:33.534Z,11.25
2018-09-14T06:00:33.717Z,16.88
2018-09-14T06:01:33.896Z,16.88
2018-09-14T06:02:34.077Z,16.88
2018-09-14T06:03:34.256Z,16.88
2018-09-14T06:04:34.469Z,16.88
2018-09-14T06:05:34.678Z,16.88
2018-09-14T06:06:35.069Z,16.88
2018-09-14T06:07:35.089Z,16.88
2018-09-14T06:08:37.743Z,16.88
2018-09-14T06:09:37.976Z,22.50
2018-09-14T06:10:36.758Z,22.50
2018-09-14T06:11:35.709Z,22.50
2018-09-14T06:12:35.785Z,22.50
2018-09-14T06:13:35.968Z,22.50
2018-09-14T06:14:36.184Z,28.13
2018-09-14T06:15:36.464Z,28.13
2018-09-14T06:16:36.579Z,22.50
2018-09-14T06:17:36.767Z,22.50
2018-09-14T06:18:36.952Z,22.50
2018-09-14T06:19:42.137Z,22.50
2018-09-14T06:20:39.354Z,22.50
2018-09-14T06:21:43.464Z,22.50
2018-09-14T06:22:39.686Z,28.13
2018-09-14T06:23:42.909Z,28.13
2018-09-14T06:24:40.403Z,28.13
2018-09-14T06:25:38.291Z,28.13
2018-09-14T06:26:38.480Z,28.13
2018-09-14T06:27:40.378Z,28.13
2018-09-14T06:28:44.073Z,28.13
2018-09-14T06:29:43.082Z,28.13
2018-09-14T06:30:41.675Z,28.13
2018-09-14T06:31:43.826Z,28.13
2018-09-14T06:32:41.160Z,28.13
2018-09-14T06:33:41.030Z,28.13
2018-09-14T06:34:39.850Z,33.75
2018-09-14T06:35:40.030Z,33.75
2018-09-14T06:36:41.203Z,33.75
2018-09-14T06:37:44.224Z,33.75
2018-09-14T06:38:40.551Z,33.75
2018-09-14T06:39:40.801Z,39.38
2018-09-14T06:40:40.909Z,39.38
2018-09-14T06:41:41.103Z,33.75
2018-09-14T06:42:41.274Z,33.75
2018-09-14T06:43:41.451Z,33.75
2018-09-14T06:44:41.620Z,33.75
2018-09-14T06:45:41.852Z,33.75
2018-09-14T06:46:41.985Z,33.75
2018-09-14T06:47:42.149Z,33.75
2018-09-14T06:48:42.326Z,33.75
2018-09-14T06:49:42.515Z,33.75
2018-09-14T06:50:42.691Z,33.75
2018-09-14T06:51:42.868Z,33.75
2018-09-14T06:52:44.768Z,33.75
2018-09-14T06:53:45.145Z,28.13
2018-09-14T06:54:46.251Z,28.13
2018-09-14T06:55:45.391Z,33.75
2018-09-14T06:56:44.324Z,33.75
2018-09-14T06:57:44.007Z,39.38
2018-09-14T06:58:44.216Z,45.00
2018-09-14T06:59:44.368Z,50.63
2018-09-14T07:00:44.551Z,50.63
2018-09-14T07:01:45.574Z,45.00
2018-09-14T07:02:45.077Z,45.00
2018-09-14T07:03:45.428Z,45.00
2018-09-14T07:04:45.589Z,45.00
2018-09-14T07:05:45.643Z,45.00
2018-09-14T07:06:45.802Z,45.00
2018-09-14T07:07:45.981Z,45.00
2018-09-14T07:08:46.140Z,45.00
2018-09-14T07:09:45.922Z,45.00
2018-09-14T07:10:46.108Z,45.00
2018-09-14T07:11:46.313Z,45.00
2018-09-14T07:12:46.519Z,45.00
2018-09-14T07:13:46.704Z,50.63
2018-09-14T07:14:46.924Z,50.63
2018-09-14T07:15:47.074Z,56.25
2018-09-14T07:16:47.249Z,61.88
2018-09-14T07:17:47.422Z,67.50
2018-09-14T07:18:47.600Z,67.50
2018-09-14T07:19:47.831Z,67.50
2018-09-14T07:20:48.007Z,67.50
2018-09-14T07:21:48.263Z,73.13
2018-09-14T07:22:48.496Z,78.75
2018-09-14T07:23:48.456Z,78.75
2018-09-14T07:24:48.808Z,67.50
2018-09-14T07:25:48.817Z,67.50
2018-09-14T07:26:49.017Z,78.75
2018-09-14T07:27:49.194Z,84.38
2018-09-14T07:28:49.505Z,84.38
2018-09-14T07:29:49.595Z,84.38
2018-09-14T07:30:49.788Z,84.38
2018-09-14T07:31:49.992Z,84.38
2018-09-14T07:32:50.121Z,90.00
2018-09-14T07:33:50.277Z,90.00
2018-09-14T07:34:50.457Z,95.63
2018-09-14T07:35:50.634Z,95.63
2018-09-14T07:36:51.984Z,95.63
2018-09-14T07:37:50.937Z,95.63
2018-09-14T07:38:51.146Z,95.63
2018-09-14T07:39:51.326Z,101.25
2018-09-14T07:40:51.504Z,101.25
2018-09-14T07:41:51.688Z,106.88
2018-09-14T07:42:51.874Z,112.50
2018-09-14T07:43:52.058Z,112.50
2018-09-14T07:44:52.245Z,118.13
2018-09-14T07:45:52.430Z,123.75
2018-09-14T07:46:52.619Z,129.38
2018-09-14T07:47:52.802Z,140.63
2018-09-14T07:48:52.987Z,146.25
2018-09-14T07:49:53.262Z,151.88
2018-09-14T07:50:53.707Z,157.50
2018-09-14T07:51:53.690Z,163.13
2018-09-14T07:52:53.976Z,163.13
2018-09-14T07:53:54.376Z,163.13
2018-09-14T07:54:54.360Z,163.13
2018-09-14T07:55:54.517Z,163.13
2018-09-14T07:56:54.476Z,163.13
2018-09-14T07:57:54.651Z,168.75
2018-09-14T07:58:56.363Z,174.38
2018-09-14T07:59:55.200Z,180.00
2018-09-14T08:00:55.385Z,180.00
2018-09-14T08:01:55.427Z,168.75
2018-09-14T08:02:55.612Z,163.13
2018-09-14T08:03:55.796Z,163.13
2018-09-14T08:04:55.909Z,168.75
2018-09-14T08:05:56.608Z,185.63
2018-09-14T08:06:57.193Z,202.50
2018-09-14T08:07:56.402Z,213.75
2018-09-14T08:08:58.007Z,230.63
2018-09-14T08:09:59.496Z,241.88
2018-09-14T08:10:58.138Z,253.13
2018-09-14T08:11:57.816Z,253.13
2018-09-14T08:12:58.218Z,253.13
2018-09-14T08:13:58.678Z,247.50
2018-09-14T08:14:58.624Z,230.63
2018-09-14T08:15:57.899Z,213.75
2018-09-14T08:17:00.167Z,202.50
2018-09-14T08:18:00.170Z,213.75
2018-09-14T08:18:58.848Z,236.25
2018-09-14T08:19:58.794Z,253.13
2018-09-14T08:21:00.245Z,253.13
2018-09-14T08:21:59.318Z,253.13
2018-09-14T08:22:59.289Z,247.50
2018-09-14T08:24:00.769Z,258.75
2018-09-14T08:24:59.202Z,275.63
2018-09-14T08:25:59.391Z,286.88
2018-09-14T08:26:59.817Z,292.50
2018-09-14T08:27:59.758Z,286.88
2018-09-14T08:28:59.973Z,275.63
2018-09-14T08:30:00.261Z,286.88
2018-09-14T08:31:00.378Z,292.50
2018-09-14T08:32:00.486Z,292.50
2018-09-14T08:33:00.798Z,286.88
2018-09-14T08:34:00.882Z,275.63
2018-09-14T08:35:01.081Z,270.00
2018-09-14T08:36:01.304Z,258.75
2018-09-14T08:37:01.384Z,253.13
2018-09-14T08:38:01.587Z,253.13
2018-09-14T08:39:01.778Z,253.13
2018-09-14T08:40:02.001Z,241.88
2018-09-14T08:41:02.201Z,247.50
2018-09-14T08:42:02.381Z,241.88
2018-09-14T08:43:02.560Z,247.50
2018-09-14T08:44:02.738Z,253.13
2018-09-14T08:45:02.986Z,275.63
2018-09-14T08:46:03.023Z,298.13
2018-09-14T08:47:03.231Z,326.25
2018-09-14T08:48:03.444Z,320.63
2018-09-14T08:49:03.584Z,286.88
2018-09-14T08:50:03.764Z,281.25
2018-09-14T08:51:03.971Z,292.50
2018-09-14T08:52:04.171Z,320.63
2018-09-14T08:53:04.372Z,326.25
2018-09-14T08:54:04.574Z,326.25
2018-09-14T08:55:04.785Z,320.63
2018-09-14T08:56:04.955Z,309.38
2018-09-14T08:57:05.138Z,264.38
2018-09-14T08:58:05.393Z,230.63
2018-09-14T08:59:05.508Z,202.50
2018-09-14T09:00:05.679Z,270.00
2018-09-14T09:01:05.910Z,371.25
2018-09-14T09:02:06.081Z,438.75
2018-09-14T09:03:06.270Z,511.88
2018-09-14T09:04:06.446Z,731.25
2018-09-14T09:05:06.710Z,1321.88
2018-09-14T09:06:06.861Z,2019.38
2018-09-14T09:07:07.089Z,2503.13
2018-09-14T09:08:07.329Z,2604.38
2018-09-14T09:09:07.435Z,2649.38
2018-09-14T09:10:07.578Z,2643.75
2018-09-14T09:11:07.767Z,2829.38
2018-09-14T09:12:07.941Z,2902.50
2018-09-14T09:13:08.128Z,2925.00
2018-09-14T09:14:08.317Z,2936.25
2018-09-14T09:15:08.518Z,2846.25
2018-09-14T09:16:08.709Z,2891.25
2018-09-14T09:17:08.887Z,2840.63
2018-09-14T09:18:09.079Z,2880.00
2018-09-14T09:19:09.327Z,2863.13
2018-09-14T09:20:09.494Z,579.38
2018-09-14T09:21:09.589Z,382.50
2018-09-14T09:22:09.756Z,1980.00
2018-09-14T09:23:09.945Z,2126.25
2018-09-14T09:24:10.121Z,2728.13
2018-09-14T09:25:10.317Z,1608.75
2018-09-14T09:26:10.520Z,1012.50
2018-09-14T09:27:10.729Z,2626.88
2018-09-14T09:28:10.910Z,2846.25
2018-09-14T09:29:11.095Z,703.13
2018-09-14T09:30:11.301Z,433.13
2018-09-14T09:31:11.503Z,371.25
2018-09-14T09:32:11.730Z,354.38
2018-09-14T09:33:11.879Z,1856.25
2018-09-14T09:34:12.064Z,995.63
2018-09-14T09:35:12.386Z,2508.75
2018-09-14T09:36:12.393Z,2688.75
2018-09-14T09:37:12.579Z,2109.38
2018-09-14T09:38:12.763Z,1074.38
2018-09-14T09:39:12.941Z,354.38
2018-09-14T09:40:13.135Z,337.50
2018-09-14T09:41:13.311Z,967.50
2018-09-14T09:42:13.496Z,2126.25
2018-09-14T09:43:13.989Z,365.63
2018-09-14T09:44:13.793Z,270.00
2018-09-14T09:45:13.979Z,241.88
2018-09-14T09:46:14.167Z,2531.25
2018-09-14T09:47:14.344Z,2480.63
2018-09-14T09:48:14.561Z,2430.00
2018-09-14T09:49:14.715Z,2418.75
2018-09-14T09:50:14.921Z,2418.75
2018-09-14T09:51:15.135Z,2407.50
2018-09-14T09:52:15.282Z,2418.75
2018-09-14T09:53:15.464Z,2373.75
2018-09-14T09:54:15.667Z,2351.25
2018-09-14T09:55:15.839Z,2171.25
2018-09-14T09:56:16.020Z,2289.38
2018-09-14T09:57:16.232Z,2306.25
2018-09-14T09:58:16.442Z,2306.25
2018-09-14T09:59:16.633Z,2295.00
2018-09-14T10:00:16.825Z,2266.88
2018-09-14T10:01:17.007Z,2205.00
2018-09-14T10:02:17.191Z,2188.13
2018-09-14T10:03:17.376Z,2176.88
2018-09-14T10:04:17.559Z,2176.88
2018-09-14T10:05:17.844Z,2154.38
2018-09-14T10:06:18.023Z,2160.00
2018-09-14T10:07:18.213Z,2137.50
2018-09-14T10:08:18.401Z,2126.25
2018-09-14T10:09:18.582Z,2126.25
2018-09-14T10:10:18.777Z,2160.00
2018-09-14T10:11:18.970Z,2176.88
2018-09-14T10:12:19.167Z,2137.50
2018-09-14T10:13:19.354Z,2154.38
2018-09-14T10:14:19.553Z,2182.50
2018-09-14T10:15:19.741Z,2210.63
2018-09-14T10:16:19.969Z,2221.88
2018-09-14T10:17:20.039Z,2233.13
2018-09-14T10:18:20.244Z,2306.25
2018-09-14T10:19:20.416Z,1012.50
2018-09-14T10:20:20.620Z,483.75
2018-09-14T10:21:20.927Z,2025.00
2018-09-14T10:22:20.992Z,2413.13
2018-09-14T10:23:21.187Z,585.00
2018-09-14T10:24:21.376Z,781.88
2018-09-14T10:25:21.562Z,1305.00
2018-09-14T10:26:21.752Z,663.75
2018-09-14T10:27:24.342Z,444.38
2018-09-14T10:28:22.167Z,444.38
2018-09-14T10:29:22.358Z,663.75
2018-09-14T10:30:22.552Z,933.75
2018-09-14T10:31:22.740Z,753.75
2018-09-14T10:32:22.923Z,663.75
2018-09-14T10:33:23.116Z,607.50
2018-09-14T10:34:23.298Z,556.88
2018-09-14T10:35:23.489Z,528.75
2018-09-14T10:36:23.675Z,405.00
2018-09-14T10:37:23.860Z,551.25
2018-09-14T10:38:24.049Z,421.88
2018-09-14T10:39:24.232Z,416.25
2018-09-14T10:40:24.501Z,343.13
2018-09-14T10:41:24.604Z,320.63
2018-09-14T10:42:24.804Z,292.50
2018-09-14T10:43:24.991Z,270.00
2018-09-14T10:44:25.248Z,275.63
2018-09-14T10:45:25.401Z,270.00
2018-09-14T10:46:26.943Z,264.38
2018-09-14T10:47:25.628Z,264.38
2018-09-14T10:48:25.813Z,264.38
2018-09-14T10:49:25.994Z,258.75
2018-09-14T10:50:26.193Z,258.75
2018-09-14T10:51:26.382Z,258.75
2018-09-14T10:52:27.964Z,270.00
2018-09-14T10:53:26.689Z,292.50
2018-09-14T10:54:26.882Z,298.13
2018-09-14T10:55:27.085Z,326.25
2018-09-14T10:56:27.257Z,399.38
2018-09-14T10:57:27.449Z,393.75
2018-09-14T10:58:27.628Z,427.50
2018-09-14T10:59:27.827Z,405.00
2018-09-14T11:00:28.013Z,399.38
2018-09-14T11:01:28.194Z,416.25
2018-09-14T11:02:28.381Z,360.00
2018-09-14T11:03:28.558Z,365.63
2018-09-14T11:04:28.805Z,354.38
2018-09-14T11:05:28.940Z,348.75
2018-09-14T11:06:29.140Z,354.38
2018-09-14T11:07:29.306Z,371.25
2018-09-14T11:08:29.499Z,405.00
2018-09-14T11:09:29.699Z,421.88
2018-09-14T11:10:29.884Z,416.25
2018-09-14T11:11:30.062Z,461.25
2018-09-14T11:12:30.249Z,466.88
2018-09-14T11:13:30.434Z,455.63
2018-09-14T11:14:30.612Z,697.50
2018-09-14T11:15:30.803Z,1507.50
2018-09-14T11:16:30.990Z,860.63
2018-09-14T11:17:31.175Z,832.50
2018-09-14T11:18:31.390Z,894.38
2018-09-14T11:19:31.527Z,573.75
2018-09-14T11:20:32.319Z,618.75
2018-09-14T11:21:31.902Z,1569.38
2018-09-14T11:22:33.599Z,815.63
2018-09-14T11:23:32.324Z,950.63
2018-09-14T11:24:32.533Z,483.75
2018-09-14T11:25:32.823Z,1282.50
2018-09-14T11:26:32.887Z,731.25
2018-09-14T11:27:33.070Z,1406.25
2018-09-14T11:28:33.261Z,1327.50
2018-09-14T11:29:34.365Z,1282.50
2018-09-14T11:30:33.798Z,1260.00
2018-09-14T11:31:33.854Z,1237.50
2018-09-14T11:32:34.038Z,1215.00
2018-09-14T11:33:34.227Z,1209.38
2018-09-14T11:34:34.437Z,1198.13
2018-09-14T11:35:34.602Z,1198.13
2018-09-14T11:36:34.784Z,1186.88
2018-09-14T11:37:35.055Z,1181.25
2018-09-14T11:38:35.308Z,1164.38
2018-09-14T11:39:35.356Z,1158.75
2018-09-14T11:40:35.544Z,1170.00
2018-09-14T11:41:35.733Z,1130.63
2018-09-14T11:42:35.929Z,478.13
2018-09-14T11:43:36.124Z,1153.13
2018-09-14T11:44:36.306Z,1153.13
2018-09-14T11:45:36.492Z,1023.75
2018-09-14T11:46:36.678Z,1119.38
2018-09-14T11:47:36.864Z,1119.38
2018-09-14T11:48:37.063Z,1119.38
2018-09-14T11:49:37.403Z,1119.38
2018-09-14T11:50:37.509Z,1125.00
2018-09-14T11:51:37.574Z,1125.00
2018-09-14T11:52:37.757Z,1136.25
2018-09-14T11:53:37.957Z,1119.38
2018-09-14T11:54:38.129Z,1130.63
2018-09-14T11:55:38.350Z,1125.00
2018-09-14T11:56:38.533Z,1141.88
2018-09-14T11:57:38.720Z,1181.25
2018-09-14T11:58:38.918Z,1192.50
2018-09-14T11:59:39.108Z,1130.63
2018-09-14T12:00:39.293Z,1192.50
2018-09-14T12:01:39.484Z,601.88
2018-09-14T12:02:39.696Z,163.13
2018-09-14T12:03:39.871Z,168.75
2018-09-14T12:04:40.068Z,388.13
2018-09-14T12:05:40.260Z,180.00
2018-09-14T12:06:41.112Z,185.63
2018-09-14T12:07:42.585Z,438.75
2018-09-14T12:08:41.657Z,1018.13
2018-09-14T12:09:45.112Z,630.00
2018-09-14T12:10:41.114Z,151.88
2018-09-14T12:11:44.984Z,140.63
2018-09-14T12:12:41.415Z,146.25
2018-09-14T12:13:41.653Z,151.88
2018-09-14T12:14:41.832Z,163.13
2018-09-14T12:15:42.021Z,180.00
2018-09-14T12:16:42.203Z,202.50
2018-09-14T12:17:42.387Z,286.88
2018-09-14T12:18:42.568Z,281.25
2018-09-14T12:19:42.753Z,236.25
2018-09-14T12:20:42.936Z,225.00
2018-09-14T12:21:43.126Z,208.13
2018-09-14T12:22:45.590Z,208.13
2018-09-14T12:23:45.959Z,180.00
2018-09-14T12:24:44.170Z,180.00
2018-09-14T12:25:47.726Z,180.00
2018-09-14T12:26:44.888Z,180.00
2018-09-14T12:27:46.250Z,180.00
2018-09-14T12:28:45.591Z,168.75
2018-09-14T12:29:45.784Z,180.00
2018-09-14T12:30:44.789Z,168.75
2018-09-14T12:31:44.962Z,163.13
2018-09-14T12:32:45.146Z,180.00
2018-09-14T12:33:45.334Z,219.38
2018-09-14T12:34:45.937Z,230.63
2018-09-14T12:35:45.712Z,219.38
2018-09-14T12:36:46.046Z,196.88
2018-09-14T12:37:46.101Z,180.00
2018-09-14T12:38:46.322Z,185.63
2018-09-14T12:39:46.565Z,185.63
2018-09-14T12:40:46.632Z,185.63
2018-09-14T12:41:46.853Z,191.25
2018-09-14T12:42:47.046Z,191.25
2018-09-14T12:43:47.233Z,168.75
2018-09-14T12:44:47.440Z,157.50
2018-09-14T12:45:47.645Z,146.25
2018-09-14T12:46:47.825Z,157.50
2018-09-14T12:47:48.331Z,151.88
2018-09-14T12:48:48.187Z,163.13
2018-09-14T12:49:48.501Z,174.38
2018-09-14T12:50:48.459Z,180.00
2018-09-14T12:51:48.634Z,174.38
2018-09-14T12:52:48.827Z,168.75